sensor_id;sensor_type;location;lat;lon;timestamp;temperature;humidity
4727;DHT22;2377;51.734;8.950;2022-09-09T00:01:50;14.90;99.90
4727;DHT22;2377;51.734;8.950;2022-09-09T00:04:27;14.90;99.90
4727;DHT22;2377;51.734;8.950;2022-09-09T00:07:03;14.80;99.90
4727;DHT22;2377;51.734;8.950;2022-09-09T00:09:40;14.80;99.90
4727;DHT22;2377;51.734;8.950;2022-09-09T00:12:18;14.80;99.90
4727;DHT22;2377;51.734;8.950;2022-09-09T00:14:56;14.70;99.90
4727;DHT22;2377;51.734;8.950;2022-09-09T00:17:35;14.70;99.90
4727;DHT22;2377;51.734;8.950;2022-09-09T00:20:12;14.60;99.90
4727;DHT22;2377;51.734;8.950;2022-09-09T00:22:48;14.60;99.90
4727;DHT22;2377;51.734;8.950;2022-09-09T00:25:31;14.60;99.90
4727;DHT22;2377;51.734;8.950;2022-09-09T00:28:13;14.60;99.90
4727;DHT22;2377;51.734;8.950;2022-09-09T00:30:46;14.60;99.90
4727;DHT22;2377;51.734;8.950;2022-09-09T00:33:16;14.60;99.90
4727;DHT22;2377;51.734;8.950;2022-09-09T00:35:49;14.60;99.90
4727;DHT22;2377;51.734;8.950;2022-09-09T00:38:25;14.50;99.90
4727;DHT22;2377;51.734;8.950;2022-09-09T00:41:00;14.60;99.90
4727;DHT22;2377;51.734;8.950;2022-09-09T00:43:36;14.60;99.90
4727;DHT22;2377;51.734;8.950;2022-09-09T00:46:37;14.50;99.90
4727;DHT22;2377;51.734;8.950;2022-09-09T00:49:20;14.50;99.90
4727;DHT22;2377;51.734;8.950;2022-09-09T00:52:04;14.60;99.90
4727;DHT22;2377;51.734;8.950;2022-09-09T00:54:54;14.60;99.90
4727;DHT22;2377;51.734;8.950;2022-09-09T00:57:32;14.60;99.90
4727;DHT22;2377;51.734;8.950;2022-09-09T01:00:18;14.60;99.90
4727;DHT22;2377;51.734;8.950;2022-09-09T01:02:57;14.60;99.90
4727;DHT22;2377;51.734;8.950;2022-09-09T01:05:44;14.60;99.90
4727;DHT22;2377;51.734;8.950;2022-09-09T01:08:28;14.60;99.90
4727;DHT22;2377;51.734;8.950;2022-09-09T01:11:17;14.50;99.90
4727;DHT22;2377;51.734;8.950;2022-09-09T01:13:54;14.50;99.90
4727;DHT22;2377;51.734;8.950;2022-09-09T01:16:29;14.60;99.90
4727;DHT22;2377;51.734;8.950;2022-09-09T01:18:59;14.60;99.90
4727;DHT22;2377;51.734;8.950;2022-09-09T01:21:37;14.60;99.90
4727;DHT22;2377;51.734;8.950;2022-09-09T01:24:20;14.60;99.90
4727;DHT22;2377;51.734;8.950;2022-09-09T01:26:56;14.80;99.90
4727;DHT22;2377;51.734;8.950;2022-09-09T01:29:26;14.80;99.90
4727;DHT22;2377;51.734;8.950;2022-09-09T01:31:55;14.90;99.90
4727;DHT22;2377;51.734;8.950;2022-09-09T01:34:26;15.00;99.90
4727;DHT22;2377;51.734;8.950;2022-09-09T01:37:00;15.00;99.90
4727;DHT22;2377;51.734;8.950;2022-09-09T01:39:32;15.00;99.90
4727;DHT22;2377;51.734;8.950;2022-09-09T01:42:03;15.10;99.90
4727;DHT22;2377;51.734;8.950;2022-09-09T01:44:34;15.10;99.90
4727;DHT22;2377;51.734;8.950;2022-09-09T01:47:04;15.10;99.90
4727;DHT22;2377;51.734;8.950;2022-09-09T01:49:32;15.10;99.90
4727;DHT22;2377;51.734;8.950;2022-09-09T01:52:00;15.10;99.90
4727;DHT22;2377;51.734;8.950;2022-09-09T01:54:30;15.10;99.90
4727;DHT22;2377;51.734;8.950;2022-09-09T01:57:08;15.20;99.90
4727;DHT22;2377;51.734;8.950;2022-09-09T01:59:50;15.30;99.90
4727;DHT22;2377;51.734;8.950;2022-09-09T02:02:27;15.30;99.90
4727;DHT22;2377;51.734;8.950;2022-09-09T02:05:07;15.20;99.90
4727;DHT22;2377;51.734;8.950;2022-09-09T02:07:48;15.10;99.90
4727;DHT22;2377;51.734;8.950;2022-09-09T02:10:20;15.10;99.90
4727;DHT22;2377;51.734;8.950;2022-09-09T02:12:59;15.10;99.90
4727;DHT22;2377;51.734;8.950;2022-09-09T02:15:34;15.00;99.90
4727;DHT22;2377;51.734;8.950;2022-09-09T02:18:08;15.00;99.90
4727;DHT22;2377;51.734;8.950;2022-09-09T02:20:39;15.00;99.90
4727;DHT22;2377;51.734;8.950;2022-09-09T02:23:08;15.00;99.90
4727;DHT22;2377;51.734;8.950;2022-09-09T02:25:40;14.90;99.90
4727;DHT22;2377;51.734;8.950;2022-09-09T02:28:12;14.90;99.90
4727;DHT22;2377;51.734;8.950;2022-09-09T02:30:44;14.90;99.90
4727;DHT22;2377;51.734;8.950;2022-09-09T02:33:14;14.80;99.90
4727;DHT22;2377;51.734;8.950;2022-09-09T02:35:42;14.80;99.90
4727;DHT22;2377;51.734;8.950;2022-09-09T02:38:13;14.80;99.90
4727;DHT22;2377;51.734;8.950;2022-09-09T02:40:43;14.80;99.90
4727;DHT22;2377;51.734;8.950;2022-09-09T02:43:14;14.80;99.90
4727;DHT22;2377;51.734;8.950;2022-09-09T02:45:51;14.80;99.90
4727;DHT22;2377;51.734;8.950;2022-09-09T02:48:31;14.80;99.90
4727;DHT22;2377;51.734;8.950;2022-09-09T02:51:09;14.80;99.90
4727;DHT22;2377;51.734;8.950;2022-09-09T02:53:49;14.80;99.90
4727;DHT22;2377;51.734;8.950;2022-09-09T02:56:27;14.90;99.90
4727;DHT22;2377;51.734;8.950;2022-09-09T02:59:03;14.80;99.90
4727;DHT22;2377;51.734;8.950;2022-09-09T03:01:31;14.90;99.90
4727;DHT22;2377;51.734;8.950;2022-09-09T03:03:58;14.90;99.90
4727;DHT22;2377;51.734;8.950;2022-09-09T03:06:25;14.90;99.90
4727;DHT22;2377;51.734;8.950;2022-09-09T03:08:53;14.90;99.90
4727;DHT22;2377;51.734;8.950;2022-09-09T03:11:21;14.90;99.90
4727;DHT22;2377;51.734;8.950;2022-09-09T03:13:48;14.90;99.90
4727;DHT22;2377;51.734;8.950;2022-09-09T03:16:17;15.00;99.90
4727;DHT22;2377;51.734;8.950;2022-09-09T03:18:44;14.90;99.90
4727;DHT22;2377;51.734;8.950;2022-09-09T03:21:11;14.90;99.90
4727;DHT22;2377;51.734;8.950;2022-09-09T03:23:39;15.00;99.90
4727;DHT22;2377;51.734;8.950;2022-09-09T03:26:07;15.00;99.90
4727;DHT22;2377;51.734;8.950;2022-09-09T03:28:34;15.00;99.90
4727;DHT22;2377;51.734;8.950;2022-09-09T03:31:03;15.00;99.90
4727;DHT22;2377;51.734;8.950;2022-09-09T03:33:34;15.00;99.90
4727;DHT22;2377;51.734;8.950;2022-09-09T03:36:02;15.00;99.90
4727;DHT22;2377;51.734;8.950;2022-09-09T03:38:30;15.00;99.90
4727;DHT22;2377;51.734;8.950;2022-09-09T03:40:59;15.00;99.90
4727;DHT22;2377;51.734;8.950;2022-09-09T03:43:28;15.00;99.90
4727;DHT22;2377;51.734;8.950;2022-09-09T03:45:55;15.00;99.90
4727;DHT22;2377;51.734;8.950;2022-09-09T03:48:23;15.10;99.90
4727;DHT22;2377;51.734;8.950;2022-09-09T03:50:54;15.10;99.90
4727;DHT22;2377;51.734;8.950;2022-09-09T03:53:24;15.10;99.90
4727;DHT22;2377;51.734;8.950;2022-09-09T03:55:54;15.10;99.90
4727;DHT22;2377;51.734;8.950;2022-09-09T03:58:25;15.10;99.90
4727;DHT22;2377;51.734;8.950;2022-09-09T04:00:54;15.10;99.90
4727;DHT22;2377;51.734;8.950;2022-09-09T04:03:22;15.10;99.90
4727;DHT22;2377;51.734;8.950;2022-09-09T04:05:52;15.10;99.90
4727;DHT22;2377;51.734;8.950;2022-09-09T04:08:21;15.00;99.90
4727;DHT22;2377;51.734;8.950;2022-09-09T04:10:51;15.00;99.90
4727;DHT22;2377;51.734;8.950;2022-09-09T04:13:19;15.00;99.90
4727;DHT22;2377;51.734;8.950;2022-09-09T04:15:51;15.00;99.90
4727;DHT22;2377;51.734;8.950;2022-09-09T04:18:19;15.00;99.90
4727;DHT22;2377;51.734;8.950;2022-09-09T04:20:47;15.00;99.90
4727;DHT22;2377;51.734;8.950;2022-09-09T04:23:17;15.00;99.90
4727;DHT22;2377;51.734;8.950;2022-09-09T04:25:46;15.00;99.90
4727;DHT22;2377;51.734;8.950;2022-09-09T04:28:14;15.00;99.90
4727;DHT22;2377;51.734;8.950;2022-09-09T04:30:42;15.00;99.90
4727;DHT22;2377;51.734;8.950;2022-09-09T04:33:10;15.00;99.90
4727;DHT22;2377;51.734;8.950;2022-09-09T04:35:39;14.90;99.90
4727;DHT22;2377;51.734;8.950;2022-09-09T04:38:10;14.90;99.90
4727;DHT22;2377;51.734;8.950;2022-09-09T04:40:38;14.90;99.90
4727;DHT22;2377;51.734;8.950;2022-09-09T04:43:08;14.80;99.90
4727;DHT22;2377;51.734;8.950;2022-09-09T04:45:36;14.80;99.90
4727;DHT22;2377;51.734;8.950;2022-09-09T04:48:03;14.90;99.90
4727;DHT22;2377;51.734;8.950;2022-09-09T04:50:30;14.80;99.90
4727;DHT22;2377;51.734;8.950;2022-09-09T04:53:00;14.90;99.90
4727;DHT22;2377;51.734;8.950;2022-09-09T04:55:27;14.90;99.90
4727;DHT22;2377;51.734;8.950;2022-09-09T04:57:57;14.90;99.90
4727;DHT22;2377;51.734;8.950;2022-09-09T05:00:24;15.00;99.90
4727;DHT22;2377;51.734;8.950;2022-09-09T05:02:52;15.00;99.90
4727;DHT22;2377;51.734;8.950;2022-09-09T05:05:19;15.00;99.90
4727;DHT22;2377;51.734;8.950;2022-09-09T05:07:46;15.00;99.90
4727;DHT22;2377;51.734;8.950;2022-09-09T05:10:13;14.90;99.90
4727;DHT22;2377;51.734;8.950;2022-09-09T05:12:42;14.80;99.90
4727;DHT22;2377;51.734;8.950;2022-09-09T05:15:10;14.80;99.90
4727;DHT22;2377;51.734;8.950;2022-09-09T05:17:38;14.70;99.90
4727;DHT22;2377;51.734;8.950;2022-09-09T05:20:05;14.70;99.90
4727;DHT22;2377;51.734;8.950;2022-09-09T05:22:33;14.60;99.90
4727;DHT22;2377;51.734;8.950;2022-09-09T05:25:00;14.60;99.90
4727;DHT22;2377;51.734;8.950;2022-09-09T05:27:27;14.70;99.90
4727;DHT22;2377;51.734;8.950;2022-09-09T05:29:57;14.70;99.90
4727;DHT22;2377;51.734;8.950;2022-09-09T05:32:25;14.70;99.90
4727;DHT22;2377;51.734;8.950;2022-09-09T05:34:53;14.70;99.90
4727;DHT22;2377;51.734;8.950;2022-09-09T05:37:20;14.60;99.90
4727;DHT22;2377;51.734;8.950;2022-09-09T05:39:49;14.60;99.90
4727;DHT22;2377;51.734;8.950;2022-09-09T05:42:19;14.60;99.90
4727;DHT22;2377;51.734;8.950;2022-09-09T05:44:46;14.60;99.90
4727;DHT22;2377;51.734;8.950;2022-09-09T05:47:13;14.60;99.90
4727;DHT22;2377;51.734;8.950;2022-09-09T05:49:42;14.60;99.90
4727;DHT22;2377;51.734;8.950;2022-09-09T05:52:09;14.60;99.90
4727;DHT22;2377;51.734;8.950;2022-09-09T05:54:36;14.70;99.90
4727;DHT22;2377;51.734;8.950;2022-09-09T05:57:04;14.70;99.90
4727;DHT22;2377;51.734;8.950;2022-09-09T05:59:31;14.80;99.90
4727;DHT22;2377;51.734;8.950;2022-09-09T06:01:58;14.80;99.90
4727;DHT22;2377;51.734;8.950;2022-09-09T06:04:25;14.80;99.90
4727;DHT22;2377;51.734;8.950;2022-09-09T06:06:54;14.80;99.90
4727;DHT22;2377;51.734;8.950;2022-09-09T06:09:21;14.90;99.90
4727;DHT22;2377;51.734;8.950;2022-09-09T06:11:48;14.90;99.90
4727;DHT22;2377;51.734;8.950;2022-09-09T06:14:15;15.00;99.90
4727;DHT22;2377;51.734;8.950;2022-09-09T06:16:43;15.10;99.90
4727;DHT22;2377;51.734;8.950;2022-09-09T06:19:10;15.10;99.90
4727;DHT22;2377;51.734;8.950;2022-09-09T06:21:38;15.10;99.90
4727;DHT22;2377;51.734;8.950;2022-09-09T06:24:07;15.10;99.90
4727;DHT22;2377;51.734;8.950;2022-09-09T06:26:36;15.30;99.90
4727;DHT22;2377;51.734;8.950;2022-09-09T06:29:06;15.30;99.90
4727;DHT22;2377;51.734;8.950;2022-09-09T06:31:35;15.50;99.90
4727;DHT22;2377;51.734;8.950;2022-09-09T06:34:05;15.50;99.90
4727;DHT22;2377;51.734;8.950;2022-09-09T06:36:35;15.60;99.90
4727;DHT22;2377;51.734;8.950;2022-09-09T06:39:04;15.80;99.90
4727;DHT22;2377;51.734;8.950;2022-09-09T06:41:33;15.80;99.90
4727;DHT22;2377;51.734;8.950;2022-09-09T06:44:00;15.90;99.90
4727;DHT22;2377;51.734;8.950;2022-09-09T06:46:30;16.00;99.90
4727;DHT22;2377;51.734;8.950;2022-09-09T06:48:59;16.10;99.90
4727;DHT22;2377;51.734;8.950;2022-09-09T06:51:29;16.10;99.90
4727;DHT22;2377;51.734;8.950;2022-09-09T06:54:00;16.10;99.90
4727;DHT22;2377;51.734;8.950;2022-09-09T06:56:30;16.10;99.90
4727;DHT22;2377;51.734;8.950;2022-09-09T06:59:01;16.20;99.90
4727;DHT22;2377;51.734;8.950;2022-09-09T07:01:32;16.30;99.90
4727;DHT22;2377;51.734;8.950;2022-09-09T07:04:02;16.30;99.90
4727;DHT22;2377;51.734;8.950;2022-09-09T07:06:34;16.30;99.90
4727;DHT22;2377;51.734;8.950;2022-09-09T07:09:04;16.30;99.90
4727;DHT22;2377;51.734;8.950;2022-09-09T07:11:37;16.30;99.90
4727;DHT22;2377;51.734;8.950;2022-09-09T07:14:08;16.40;99.90
4727;DHT22;2377;51.734;8.950;2022-09-09T07:16:38;16.40;99.90
4727;DHT22;2377;51.734;8.950;2022-09-09T07:19:05;16.40;99.90
4727;DHT22;2377;51.734;8.950;2022-09-09T07:21:33;16.40;99.90
4727;DHT22;2377;51.734;8.950;2022-09-09T07:24:00;16.40;99.90
4727;DHT22;2377;51.734;8.950;2022-09-09T07:26:31;16.40;99.90
4727;DHT22;2377;51.734;8.950;2022-09-09T07:28:58;16.50;99.90
4727;DHT22;2377;51.734;8.950;2022-09-09T07:31:28;16.50;99.90
4727;DHT22;2377;51.734;8.950;2022-09-09T07:33:56;16.50;99.90
4727;DHT22;2377;51.734;8.950;2022-09-09T07:36:26;16.60;99.90
4727;DHT22;2377;51.734;8.950;2022-09-09T07:38:56;16.70;99.90
4727;DHT22;2377;51.734;8.950;2022-09-09T07:41:26;16.80;99.90
4727;DHT22;2377;51.734;8.950;2022-09-09T07:43:56;16.90;99.90
4727;DHT22;2377;51.734;8.950;2022-09-09T07:46:26;17.00;99.90
4727;DHT22;2377;51.734;8.950;2022-09-09T07:48:56;17.00;99.90
4727;DHT22;2377;51.734;8.950;2022-09-09T07:51:25;17.00;99.90
4727;DHT22;2377;51.734;8.950;2022-09-09T07:53:56;17.00;99.90
4727;DHT22;2377;51.734;8.950;2022-09-09T07:56:26;17.10;99.90
4727;DHT22;2377;51.734;8.950;2022-09-09T07:58:55;17.10;99.90
4727;DHT22;2377;51.734;8.950;2022-09-09T08:01:27;17.30;99.90
4727;DHT22;2377;51.734;8.950;2022-09-09T08:03:58;17.60;99.90
4727;DHT22;2377;51.734;8.950;2022-09-09T08:06:32;17.90;99.90
4727;DHT22;2377;51.734;8.950;2022-09-09T08:09:01;18.10;99.90
4727;DHT22;2377;51.734;8.950;2022-09-09T08:11:29;18.30;99.90
4727;DHT22;2377;51.734;8.950;2022-09-09T08:13:58;18.30;94.30
4727;DHT22;2377;51.734;8.950;2022-09-09T08:16:29;18.20;99.90
4727;DHT22;2377;51.734;8.950;2022-09-09T08:18:58;18.10;99.90
4727;DHT22;2377;51.734;8.950;2022-09-09T08:21:27;18.10;99.90
4727;DHT22;2377;51.734;8.950;2022-09-09T08:23:58;18.00;99.90
4727;DHT22;2377;51.734;8.950;2022-09-09T08:26:27;18.00;99.90
4727;DHT22;2377;51.734;8.950;2022-09-09T08:28:57;18.10;99.90
4727;DHT22;2377;51.734;8.950;2022-09-09T08:31:28;18.20;99.90
4727;DHT22;2377;51.734;8.950;2022-09-09T08:33:58;18.30;99.90
4727;DHT22;2377;51.734;8.950;2022-09-09T08:36:27;18.50;82.10
4727;DHT22;2377;51.734;8.950;2022-09-09T08:38:56;18.60;82.90
4727;DHT22;2377;51.734;8.950;2022-09-09T08:41:39;18.70;50.90
4727;DHT22;2377;51.734;8.950;2022-09-09T08:44:21;19.00;34.00
4727;DHT22;2377;51.734;8.950;2022-09-09T08:47:04;19.10;36.40
4727;DHT22;2377;51.734;8.950;2022-09-09T08:49:58;19.20;26.10
4727;DHT22;2377;51.734;8.950;2022-09-09T08:52:40;19.30;14.40
4727;DHT22;2377;51.734;8.950;2022-09-09T08:55:22;19.40;6.70
4727;DHT22;2377;51.734;8.950;2022-09-09T08:57:57;19.50;1.00
4727;DHT22;2377;51.734;8.950;2022-09-09T09:00:34;20.00;1.00
4727;DHT22;2377;51.734;8.950;2022-09-09T09:03:23;20.30;1.00
4727;DHT22;2377;51.734;8.950;2022-09-09T09:06:04;20.60;1.00
4727;DHT22;2377;51.734;8.950;2022-09-09T09:08:43;20.80;1.00
4727;DHT22;2377;51.734;8.950;2022-09-09T09:11:17;21.00;1.00
4727;DHT22;2377;51.734;8.950;2022-09-09T09:13:48;20.80;1.00
4727;DHT22;2377;51.734;8.950;2022-09-09T09:16:27;20.60;1.00
4727;DHT22;2377;51.734;8.950;2022-09-09T09:19:00;20.60;1.00
4727;DHT22;2377;51.734;8.950;2022-09-09T09:21:34;21.00;1.00
4727;DHT22;2377;51.734;8.950;2022-09-09T09:24:11;20.90;1.00
4727;DHT22;2377;51.734;8.950;2022-09-09T09:26:44;20.60;1.00
4727;DHT22;2377;51.734;8.950;2022-09-09T09:29:13;20.40;1.00
4727;DHT22;2377;51.734;8.950;2022-09-09T09:31:45;20.10;1.00
4727;DHT22;2377;51.734;8.950;2022-09-09T09:34:18;20.00;1.00
4727;DHT22;2377;51.734;8.950;2022-09-09T09:36:52;19.80;1.00
4727;DHT22;2377;51.734;8.950;2022-09-09T09:39:26;19.60;1.00
4727;DHT22;2377;51.734;8.950;2022-09-09T09:41:55;19.60;1.00
4727;DHT22;2377;51.734;8.950;2022-09-09T09:44:25;19.60;1.00
4727;DHT22;2377;51.734;8.950;2022-09-09T09:47:04;19.90;1.00
4727;DHT22;2377;51.734;8.950;2022-09-09T09:49:35;20.20;1.00
4727;DHT22;2377;51.734;8.950;2022-09-09T09:52:03;20.40;1.00
4727;DHT22;2377;51.734;8.950;2022-09-09T09:54:33;20.50;1.00
4727;DHT22;2377;51.734;8.950;2022-09-09T09:57:09;20.50;1.00
4727;DHT22;2377;51.734;8.950;2022-09-09T09:59:38;20.50;1.00
4727;DHT22;2377;51.734;8.950;2022-09-09T10:02:19;20.40;1.00
4727;DHT22;2377;51.734;8.950;2022-09-09T10:05:03;20.30;1.00
4727;DHT22;2377;51.734;8.950;2022-09-09T10:07:33;20.20;1.00
4727;DHT22;2377;51.734;8.950;2022-09-09T10:10:03;20.30;1.00
4727;DHT22;2377;51.734;8.950;2022-09-09T10:12:39;20.40;1.00
4727;DHT22;2377;51.734;8.950;2022-09-09T10:15:32;20.50;1.00
4727;DHT22;2377;51.734;8.950;2022-09-09T10:18:25;20.40;1.00
4727;DHT22;2377;51.734;8.950;2022-09-09T10:21:15;20.30;1.00
4727;DHT22;2377;51.734;8.950;2022-09-09T10:24:10;20.20;1.00
4727;DHT22;2377;51.734;8.950;2022-09-09T10:26:57;20.30;1.00
4727;DHT22;2377;51.734;8.950;2022-09-09T10:29:47;20.50;1.00
4727;DHT22;2377;51.734;8.950;2022-09-09T10:32:36;20.50;1.00
4727;DHT22;2377;51.734;8.950;2022-09-09T10:35:13;20.40;1.00
4727;DHT22;2377;51.734;8.950;2022-09-09T10:38:16;20.30;1.00
4727;DHT22;2377;51.734;8.950;2022-09-09T10:40:58;20.30;1.00
4727;DHT22;2377;51.734;8.950;2022-09-09T10:44:29;20.30;1.00
4727;DHT22;2377;51.734;8.950;2022-09-09T10:53:25;20.80;1.00
4727;DHT22;2377;51.734;8.950;2022-09-09T10:56:06;21.40;1.00
4727;DHT22;2377;51.734;8.950;2022-09-09T10:58:41;21.50;1.00
4727;DHT22;2377;51.734;8.950;2022-09-09T11:01:18;21.50;1.00
4727;DHT22;2377;51.734;8.950;2022-09-09T11:03:54;21.50;1.00
4727;DHT22;2377;51.734;8.950;2022-09-09T11:06:30;21.50;1.00
4727;DHT22;2377;51.734;8.950;2022-09-09T11:09:03;21.50;1.00
4727;DHT22;2377;51.734;8.950;2022-09-09T11:11:36;21.50;1.00
4727;DHT22;2377;51.734;8.950;2022-09-09T11:14:12;21.80;1.00
4727;DHT22;2377;51.734;8.950;2022-09-09T11:16:49;22.00;1.00
4727;DHT22;2377;51.734;8.950;2022-09-09T11:19:21;22.30;1.00
4727;DHT22;2377;51.734;8.950;2022-09-09T11:21:55;22.10;1.00
4727;DHT22;2377;51.734;8.950;2022-09-09T11:24:31;22.20;1.00
4727;DHT22;2377;51.734;8.950;2022-09-09T11:27:06;22.10;99.90
4727;DHT22;2377;51.734;8.950;2022-09-09T11:30:05;22.00;1.00
4727;DHT22;2377;51.734;8.950;2022-09-09T11:33:16;21.80;1.00
4727;DHT22;2377;51.734;8.950;2022-09-09T11:36:24;21.80;1.00
4727;DHT22;2377;51.734;8.950;2022-09-09T11:39:22;21.80;1.00
4727;DHT22;2377;51.734;8.950;2022-09-09T11:42:07;22.00;1.00
4727;DHT22;2377;51.734;8.950;2022-09-09T11:44:44;21.90;99.90
4727;DHT22;2377;51.734;8.950;2022-09-09T11:47:22;21.60;1.00
4727;DHT22;2377;51.734;8.950;2022-09-09T11:49:55;21.60;1.00
4727;DHT22;2377;51.734;8.950;2022-09-09T11:52:37;21.60;1.00
4727;DHT22;2377;51.734;8.950;2022-09-09T11:55:24;21.50;1.00
4727;DHT22;2377;51.734;8.950;2022-09-09T11:57:57;21.50;1.00
4727;DHT22;2377;51.734;8.950;2022-09-09T12:00:34;21.50;1.00
4727;DHT22;2377;51.734;8.950;2022-09-09T12:03:04;21.30;1.00
4727;DHT22;2377;51.734;8.950;2022-09-09T12:05:37;21.20;1.00
4727;DHT22;2377;51.734;8.950;2022-09-09T12:08:09;21.10;1.00
4727;DHT22;2377;51.734;8.950;2022-09-09T12:10:40;21.30;1.00
4727;DHT22;2377;51.734;8.950;2022-09-09T12:13:16;21.50;1.00
4727;DHT22;2377;51.734;8.950;2022-09-09T12:15:48;21.50;1.00
4727;DHT22;2377;51.734;8.950;2022-09-09T12:18:23;21.40;1.00
4727;DHT22;2377;51.734;8.950;2022-09-09T12:20:57;21.30;1.00
4727;DHT22;2377;51.734;8.950;2022-09-09T12:23:40;21.30;1.00
4727;DHT22;2377;51.734;8.950;2022-09-09T12:26:28;21.30;1.00
4727;DHT22;2377;51.734;8.950;2022-09-09T12:29:13;21.30;1.00
4727;DHT22;2377;51.734;8.950;2022-09-09T12:31:56;21.30;1.00
4727;DHT22;2377;51.734;8.950;2022-09-09T12:34:36;21.40;1.00
4727;DHT22;2377;51.734;8.950;2022-09-09T12:37:14;21.50;1.00
4727;DHT22;2377;51.734;8.950;2022-09-09T12:39:48;21.50;1.00
4727;DHT22;2377;51.734;8.950;2022-09-09T12:42:21;21.40;1.00
4727;DHT22;2377;51.734;8.950;2022-09-09T12:44:53;21.30;1.00
4727;DHT22;2377;51.734;8.950;2022-09-09T12:47:30;21.50;1.00
4727;DHT22;2377;51.734;8.950;2022-09-09T12:50:15;21.80;1.00
4727;DHT22;2377;51.734;8.950;2022-09-09T12:52:44;21.80;99.90
4727;DHT22;2377;51.734;8.950;2022-09-09T12:55:18;21.80;1.00
4727;DHT22;2377;51.734;8.950;2022-09-09T12:57:49;21.80;99.90
4727;DHT22;2377;51.734;8.950;2022-09-09T13:00:19;22.00;99.90
4727;DHT22;2377;51.734;8.950;2022-09-09T13:02:50;21.80;99.90
4727;DHT22;2377;51.734;8.950;2022-09-09T13:05:21;21.60;99.90
4727;DHT22;2377;51.734;8.950;2022-09-09T13:07:50;21.50;1.00
4727;DHT22;2377;51.734;8.950;2022-09-09T13:10:25;21.40;1.00
4727;DHT22;2377;51.734;8.950;2022-09-09T13:12:57;21.30;1.00
4727;DHT22;2377;51.734;8.950;2022-09-09T13:15:28;21.10;1.00
4727;DHT22;2377;51.734;8.950;2022-09-09T13:17:58;20.90;1.00
4727;DHT22;2377;51.734;8.950;2022-09-09T13:20:28;21.00;1.00
4727;DHT22;2377;51.734;8.950;2022-09-09T13:22:56;21.10;1.00
4727;DHT22;2377;51.734;8.950;2022-09-09T13:25:25;21.10;1.00
4727;DHT22;2377;51.734;8.950;2022-09-09T13:27:59;21.30;1.00
4727;DHT22;2377;51.734;8.950;2022-09-09T13:30:30;21.20;1.00
4727;DHT22;2377;51.734;8.950;2022-09-09T13:33:06;21.30;1.00
4727;DHT22;2377;51.734;8.950;2022-09-09T13:35:50;21.40;1.00
4727;DHT22;2377;51.734;8.950;2022-09-09T13:38:21;21.50;1.00
4727;DHT22;2377;51.734;8.950;2022-09-09T13:40:56;21.50;1.00
4727;DHT22;2377;51.734;8.950;2022-09-09T13:43:27;21.50;1.00
4727;DHT22;2377;51.734;8.950;2022-09-09T13:45:59;21.60;1.00
4727;DHT22;2377;51.734;8.950;2022-09-09T13:48:28;21.70;1.00
4727;DHT22;2377;51.734;8.950;2022-09-09T13:51:02;21.80;1.00
4727;DHT22;2377;51.734;8.950;2022-09-09T13:53:31;21.80;1.00
4727;DHT22;2377;51.734;8.950;2022-09-09T13:55:58;21.80;1.00
4727;DHT22;2377;51.734;8.950;2022-09-09T13:58:28;21.90;1.00
4727;DHT22;2377;51.734;8.950;2022-09-09T14:00:55;22.00;1.00
4727;DHT22;2377;51.734;8.950;2022-09-09T14:03:23;22.00;1.00
4727;DHT22;2377;51.734;8.950;2022-09-09T14:05:50;22.00;99.90
4727;DHT22;2377;51.734;8.950;2022-09-09T14:08:25;22.10;1.00
4727;DHT22;2377;51.734;8.950;2022-09-09T14:10:54;22.10;1.00
4727;DHT22;2377;51.734;8.950;2022-09-09T14:13:25;22.00;1.00
4727;DHT22;2377;51.734;8.950;2022-09-09T14:15:53;22.00;1.00
4727;DHT22;2377;51.734;8.950;2022-09-09T14:18:20;21.80;1.00
4727;DHT22;2377;51.734;8.950;2022-09-09T14:20:48;21.80;1.00
4727;DHT22;2377;51.734;8.950;2022-09-09T14:23:16;21.80;1.00
4727;DHT22;2377;51.734;8.950;2022-09-09T14:25:44;21.80;1.00
4727;DHT22;2377;51.734;8.950;2022-09-09T14:28:12;21.90;99.90
4727;DHT22;2377;51.734;8.950;2022-09-09T14:30:41;22.00;99.90
4727;DHT22;2377;51.734;8.950;2022-09-09T14:33:12;22.00;99.90
4727;DHT22;2377;51.734;8.950;2022-09-09T14:35:41;22.00;99.90
4727;DHT22;2377;51.734;8.950;2022-09-09T14:38:09;21.80;99.90
4727;DHT22;2377;51.734;8.950;2022-09-09T14:40:37;21.70;1.00
4727;DHT22;2377;51.734;8.950;2022-09-09T14:43:05;21.60;99.90
4727;DHT22;2377;51.734;8.950;2022-09-09T14:45:32;21.50;1.00
4727;DHT22;2377;51.734;8.950;2022-09-09T14:48:03;21.50;99.90
4727;DHT22;2377;51.734;8.950;2022-09-09T14:50:31;21.50;99.90
4727;DHT22;2377;51.734;8.950;2022-09-09T14:53:00;21.50;1.00
4727;DHT22;2377;51.734;8.950;2022-09-09T14:55:27;21.50;1.00
4727;DHT22;2377;51.734;8.950;2022-09-09T14:57:54;21.60;1.00
4727;DHT22;2377;51.734;8.950;2022-09-09T15:00:22;21.70;1.00
4727;DHT22;2377;51.734;8.950;2022-09-09T15:02:52;21.80;99.90
4727;DHT22;2377;51.734;8.950;2022-09-09T15:05:19;22.00;99.90
4727;DHT22;2377;51.734;8.950;2022-09-09T15:07:49;22.10;99.90
4727;DHT22;2377;51.734;8.950;2022-09-09T15:10:16;22.00;99.90
4727;DHT22;2377;51.734;8.950;2022-09-09T15:12:43;21.90;99.90
4727;DHT22;2377;51.734;8.950;2022-09-09T15:15:11;21.80;1.00
4727;DHT22;2377;51.734;8.950;2022-09-09T15:17:39;21.60;99.90
4727;DHT22;2377;51.734;8.950;2022-09-09T15:20:07;21.50;99.90
4727;DHT22;2377;51.734;8.950;2022-09-09T15:22:35;21.50;99.90
4727;DHT22;2377;51.734;8.950;2022-09-09T15:25:05;21.50;99.90
4727;DHT22;2377;51.734;8.950;2022-09-09T15:27:33;21.40;99.90
4727;DHT22;2377;51.734;8.950;2022-09-09T15:30:00;21.50;99.90
4727;DHT22;2377;51.734;8.950;2022-09-09T15:32:28;21.50;99.90
4727;DHT22;2377;51.734;8.950;2022-09-09T15:34:55;21.50;99.90
4727;DHT22;2377;51.734;8.950;2022-09-09T15:37:23;21.40;99.90
4727;DHT22;2377;51.734;8.950;2022-09-09T15:39:50;21.40;99.90
4727;DHT22;2377;51.734;8.950;2022-09-09T15:42:18;21.30;99.90
4727;DHT22;2377;51.734;8.950;2022-09-09T15:44:45;21.30;99.90
4727;DHT22;2377;51.734;8.950;2022-09-09T15:47:13;21.40;99.90
4727;DHT22;2377;51.734;8.950;2022-09-09T15:49:40;21.40;1.00
4727;DHT22;2377;51.734;8.950;2022-09-09T15:52:09;21.40;1.00
4727;DHT22;2377;51.734;8.950;2022-09-09T15:54:37;21.30;1.00
4727;DHT22;2377;51.734;8.950;2022-09-09T15:57:07;21.40;1.00
4727;DHT22;2377;51.734;8.950;2022-09-09T15:59:39;21.40;1.00
4727;DHT22;2377;51.734;8.950;2022-09-09T16:02:06;21.40;1.00
4727;DHT22;2377;51.734;8.950;2022-09-09T16:04:33;21.40;1.00
4727;DHT22;2377;51.734;8.950;2022-09-09T16:07:02;21.30;1.00
4727;DHT22;2377;51.734;8.950;2022-09-09T16:09:31;21.10;1.00
4727;DHT22;2377;51.734;8.950;2022-09-09T16:12:02;21.00;1.00
4727;DHT22;2377;51.734;8.950;2022-09-09T16:14:33;20.90;1.00
4727;DHT22;2377;51.734;8.950;2022-09-09T16:17:03;20.80;1.00
4727;DHT22;2377;51.734;8.950;2022-09-09T16:19:31;20.80;1.00
4727;DHT22;2377;51.734;8.950;2022-09-09T16:22:00;20.70;1.00
4727;DHT22;2377;51.734;8.950;2022-09-09T16:24:28;20.60;1.00
4727;DHT22;2377;51.734;8.950;2022-09-09T16:26:55;20.60;1.00
4727;DHT22;2377;51.734;8.950;2022-09-09T16:29:22;20.60;1.00
4727;DHT22;2377;51.734;8.950;2022-09-09T16:31:53;20.60;1.00
4727;DHT22;2377;51.734;8.950;2022-09-09T16:34:22;20.50;1.00
4727;DHT22;2377;51.734;8.950;2022-09-09T16:36:50;20.50;1.00
4727;DHT22;2377;51.734;8.950;2022-09-09T16:39:19;20.50;1.00
4727;DHT22;2377;51.734;8.950;2022-09-09T16:41:47;20.50;1.00
4727;DHT22;2377;51.734;8.950;2022-09-09T16:44:17;20.50;1.00
4727;DHT22;2377;51.734;8.950;2022-09-09T16:46:45;20.60;1.00
4727;DHT22;2377;51.734;8.950;2022-09-09T16:49:14;20.50;1.00